Time;durP1;ratioP1;P1;durP2;ratioP2;P2;SDS_P1;SDS_P2;PMS_P1;PMS_P2;Temp;Humidity;BMP_temperature;BMP_pressure;BME280_temperature;BME280_humidity;BME280_pressure;Samples;Min_cycle;Max_cycle;Signal;HPM_P1;HPM_P2
2021/11/12 00:04:02;;;;;;;25.70;14.77;;;;;;;5.57;73.65;95640.56;4931307;28;20521;-82
2021/11/12 00:12:20;;;;;;;26.33;15.60;;;;;;;5.56;74.31;95644.09;4972283;28;20467;-82
2021/11/12 00:14:49;;;;;;;21.33;14.90;;;;;;;5.57;74.80;95648.38;4972182;28;20515;-82
2021/11/12 00:17:17;;;;;;;35.97;15.20;;;;;;;5.57;73.94;95648.38;4971547;28;20519;-82
2021/11/12 00:19:44;;;;;;;20.97;14.80;;;;;;;5.59;74.04;95641.31;4971561;28;20440;-82
2021/11/12 00:22:12;;;;;;;25.93;14.50;;;;;;;5.58;73.13;95642.22;4971645;28;20459;-82
2021/11/12 00:24:40;;;;;;;23.87;14.03;;;;;;;5.55;74.12;95645.00;4971346;28;20444;-82
2021/11/12 00:27:09;;;;;;;20.10;14.60;;;;;;;5.50;73.98;95640.97;4971526;28;20452;-82
2021/11/12 00:29:42;;;;;;;32.10;17.77;;;;;;;5.45;74.71;95638.59;4955524;28;20451;-82
2021/11/12 00:32:12;;;;;;;32.30;14.93;;;;;;;5.37;73.64;95645.13;4939039;28;21014;-82
2021/11/12 00:35:01;;;;;;;27.30;16.27;;;;;;;5.37;74.78;95635.56;4971296;28;20539;-82
2021/11/12 00:37:41;;;;;;;24.50;14.60;;;;;;;5.41;74.11;95638.81;4985237;28;20442;-82
2021/11/12 00:40:14;;;;;;;25.17;15.67;;;;;;;5.39;74.58;95630.25;5032609;28;20524;-82
2021/11/12 00:42:46;;;;;;;21.30;13.43;;;;;;;5.34;73.26;95625.31;5035935;28;20450;-82
2021/11/12 00:45:18;;;;;;;18.23;11.87;;;;;;;5.27;73.32;95619.59;5036209;28;20446;-82
2021/11/12 00:47:50;;;;;;;22.23;13.93;;;;;;;5.27;72.65;95618.75;5035875;28;20944;-82
2021/11/12 00:50:40;;;;;;;19.50;11.63;;;;;;;5.25;73.40;95615.38;5001037;28;20442;-81
2021/11/12 00:55:54;;;;;;;17.07;11.80;;;;;;;5.29;73.38;95611.69;5035745;28;20481;-82
2021/11/12 00:58:23;;;;;;;22.03;13.33;;;;;;;5.32;72.54;95614.13;5035655;28;20445;-82
2021/11/12 01:00:50;;;;;;;23.70;12.67;;;;;;;5.35;73.29;95610.53;5035860;28;20441;-82
2021/11/12 01:03:18;;;;;;;17.60;12.93;;;;;;;5.29;73.02;95614.31;5035502;28;20933;-82
2021/11/12 01:05:45;;;;;;;17.80;11.83;;;;;;;5.24;72.79;95613.72;5035836;28;20446;-82
2021/11/12 01:08:12;;;;;;;18.80;12.00;;;;;;;5.20;73.10;95614.75;5035705;28;20465;-82
2021/11/12 01:10:39;;;;;;;18.43;13.30;;;;;;;5.19;73.55;95615.69;5035499;28;20442;-82
2021/11/12 01:13:06;;;;;;;20.47;13.30;;;;;;;5.22;73.90;95610.34;5035566;28;20449;-82
2021/11/12 01:15:35;;;;;;;21.93;12.00;;;;;;;5.26;73.32;95617.06;5033229;28;20544;-82
2021/11/12 01:18:02;;;;;;;18.90;11.93;;;;;;;5.25;73.25;95613.63;5035966;28;20543;-82
2021/11/12 01:20:29;;;;;;;15.13;11.57;;;;;;;5.25;73.84;95615.38;5035656;28;20529;-82
2021/11/12 01:22:56;;;;;;;19.73;11.93;;;;;;;5.27;73.30;95610.94;5035683;28;20442;-82
2021/11/12 01:25:24;;;;;;;15.60;11.27;;;;;;;5.25;73.49;95613.63;5035398;28;20448;-82
2021/11/12 01:27:52;;;;;;;13.83;10.57;;;;;;;5.26;73.90;95606.66;5035402;28;20929;-82
2021/11/12 01:30:20;;;;;;;16.90;12.10;;;;;;;5.25;74.02;95608.44;5035485;28;20480;-83
2021/11/12 01:32:48;;;;;;;23.60;12.33;;;;;;;5.23;74.11;95599.88;5035388;28;21028;-82
2021/11/12 01:35:18;;;;;;;21.80;14.00;;;;;;;5.24;74.54;95609.34;5035162;28;20482;-82
2021/11/12 01:37:45;;;;;;;22.03;13.50;;;;;;;5.23;73.98;95597.25;5035256;28;20460;-82
2021/11/12 01:40:20;;;;;;;18.27;11.67;;;;;;;5.20;73.76;95599.16;5035453;28;20446;-82
2021/11/12 01:43:06;;;;;;;17.03;12.23;;;;;;;5.18;74.46;95598.41;5035614;28;20470;-82
2021/11/12 01:45:47;;;;;;;17.83;11.50;;;;;;;5.18;74.01;95603.59;5036745;28;20537;-81
2021/11/12 01:51:02;;;;;;;16.17;11.90;;;;;;;5.14;74.24;95586.47;5031748;28;20494;-81
2021/11/12 01:53:33;;;;;;;19.80;13.63;;;;;;;5.16;73.77;95592.44;5034418;28;21011;-81
2021/11/12 01:58:54;;;;;;;17.10;13.80;;;;;;;5.10;74.26;95587.56;5034433;28;20430;-81
2021/11/12 02:01:23;;;;;;;17.80;11.67;;;;;;;5.07;74.54;95587.72;5034638;28;20438;-81
2021/11/12 02:03:53;;;;;;;18.03;9.73;;;;;;;5.04;73.94;95585.28;5034336;28;20949;-81
2021/11/12 02:06:22;;;;;;;13.37;10.80;;;;;;;5.03;74.59;95578.41;5034637;28;20937;-81
2021/11/12 02:08:50;;;;;;;21.53;11.37;;;;;;;5.05;75.02;95576.56;5034738;28;20517;-81
2021/11/12 02:11:19;;;;;;;19.17;11.50;;;;;;;5.06;75.68;95583.44;5034535;28;20529;-80
2021/11/12 02:13:47;;;;;;;12.20;10.20;;;;;;;5.08;74.60;95576.41;5034425;28;20983;-81
2021/11/12 02:16:20;;;;;;;18.93;11.57;;;;;;;5.04;75.28;95577.47;5034270;28;20489;-81
2021/11/12 02:18:48;;;;;;;14.33;11.63;;;;;;;5.00;74.46;95576.81;5034524;28;20446;-82
2021/11/12 02:21:24;;;;;;;23.57;11.27;;;;;;;4.98;75.11;95573.44;5034671;28;20446;-82
2021/11/12 02:23:57;;;;;;;14.87;11.20;;;;;;;5.00;74.20;95573.38;5034412;28;20804;-82
2021/11/12 02:26:27;;;;;;;18.63;12.07;;;;;;;4.97;74.78;95572.59;5034091;28;20485;-82
2021/11/12 02:28:55;;;;;;;13.53;10.87;;;;;;;4.92;74.78;95566.81;5035250;28;20939;-82
2021/11/12 02:31:23;;;;;;;14.73;9.50;;;;;;;4.92;74.60;95581.56;5034577;28;20497;-82
2021/11/12 02:33:52;;;;;;;17.53;10.60;;;;;;;4.89;73.75;95576.50;5034561;28;20537;-82
2021/11/12 02:36:21;;;;;;;17.43;11.70;;;;;;;4.82;75.06;95565.59;5034248;28;20485;-81
2021/11/12 02:38:50;;;;;;;13.87;12.40;;;;;;;4.82;75.74;95572.53;5034454;28;20550;-81
2021/11/12 02:41:17;;;;;;;16.40;11.67;;;;;;;4.73;75.94;95562.63;5034128;28;20525;-81
2021/11/12 02:43:47;;;;;;;21.90;12.50;;;;;;;4.64;76.62;95562.19;5033955;28;20446;-82
2021/11/12 02:46:17;;;;;;;18.13;12.67;;;;;;;4.66;77.62;95556.91;5034555;28;20797;-81
2021/11/12 02:48:44;;;;;;;11.97;9.77;;;;;;;4.66;78.06;95549.94;5033995;28;20530;-81
2021/11/12 02:51:15;;;;;;;15.63;10.87;;;;;;;4.68;78.96;95560.25;5033945;28;20485;-80
2021/11/12 02:53:44;;;;;;;14.53;9.80;;;;;;;4.67;78.22;95553.38;5033709;28;20489;-81
2021/11/12 02:56:13;;;;;;;14.90;10.17;;;;;;;4.66;77.39;95551.72;5033879;28;20544;-81
2021/11/12 02:58:41;;;;;;;15.90;11.47;;;;;;;4.57;77.27;95554.75;4999660;28;20442;-81
2021/11/12 03:01:11;;;;;;;19.43;13.53;;;;;;;4.49;78.21;95541.31;5033698;28;20449;-82
2021/11/12 03:03:38;;;;;;;17.40;12.77;;;;;;;4.51;77.93;95544.66;5033507;28;20486;-82
2021/11/12 03:06:05;;;;;;;14.80;12.10;;;;;;;4.54;77.43;95544.50;5033482;28;20839;-82
2021/11/12 03:08:33;;;;;;;19.77;12.30;;;;;;;4.54;77.91;95540.16;5033855;28;20440;-81
2021/11/12 03:11:01;;;;;;;20.10;12.10;;;;;;;4.58;77.48;95541.69;5031215;28;20464;-81
2021/11/12 03:13:28;;;;;;;23.47;12.70;;;;;;;4.59;77.42;95545.13;5033405;28;20456;-81
2021/11/12 03:15:55;;;;;;;17.10;11.23;;;;;;;4.62;78.54;95544.94;5033446;28;20485;-81
2021/11/12 03:18:23;;;;;;;17.67;11.73;;;;;;;4.61;77.69;95541.50;5031464;28;20813;-81
2021/11/12 03:20:51;;;;;;;23.63;12.87;;;;;;;4.57;77.44;95546.94;4998516;28;20442;-82
2021/11/12 03:23:20;;;;;;;20.70;12.53;;;;;;;4.53;76.92;95542.84;5033860;28;20954;-81
2021/11/12 03:25:53;;;;;;;19.07;12.27;;;;;;;4.44;77.59;95544.16;5033482;28;20478;-82
2021/11/12 03:28:38;;;;;;;20.33;12.80;;;;;;;4.44;77.06;95548.50;5033681;28;20449;-82
2021/11/12 04:01:35;;;;;;;20.73;12.63;;;;;;;4.41;78.32;95531.31;4952166;29;20971;-82
2021/11/12 04:04:19;;;;;;;18.70;13.37;;;;;;;4.44;77.93;95527.72;4952006;28;20528;-82
2021/11/12 04:06:49;;;;;;;20.93;12.77;;;;;;;4.43;77.87;95526.03;4924043;29;20955;-82
2021/11/12 04:17:45;;;;;;;18.50;13.53;;;;;;;4.31;77.67;95524.88;4994716;28;20439;-82
2021/11/12 05:12:43;;;;;;;108.97;30.43;;;;;;;3.73;77.35;95535.50;4954865;29;20479;-82
2021/11/12 05:34:55;;;;;;;32.83;19.33;;;;;;;3.77;78.68;95537.09;5013959;28;20419;-81
2021/11/12 05:51:35;;;;;;;39.03;21.07;;;;;;;8.21;65.29;95536.22;5013515;28;20458;-82
2021/11/12 05:56:50;;;;;;;37.43;18.00;;;;;;;8.42;61.75;95536.63;5013756;28;20436;-81
2021/11/12 05:59:18;;;;;;;28.97;18.10;;;;;;;8.44;61.61;95536.50;5013616;28;20441;-82
2021/11/12 06:01:47;;;;;;;29.60;16.97;;;;;;;8.37;61.63;95533.44;5013580;28;20930;-82
2021/11/12 06:04:14;;;;;;;33.60;18.03;;;;;;;8.31;62.31;95534.66;5013464;28;20936;-82
2021/11/12 06:06:42;;;;;;;28.73;19.10;;;;;;;8.22;62.52;95543.13;5013542;28;20550;-82
2021/11/12 06:09:09;;;;;;;26.63;17.47;;;;;;;8.13;63.27;95528.03;4997775;28;20437;-82
2021/11/12 06:11:36;;;;;;;29.33;17.60;;;;;;;8.06;63.30;95543.25;5013805;28;20437;-88
2021/11/12 06:14:05;;;;;;;30.63;18.70;;;;;;;8.91;80.73;95533.31;5014884;28;20459;-85
2021/11/12 06:16:32;;;;;;;42.67;23.43;;;;;;;8.77;66.77;95529.03;5013490;28;20584;-85
2021/11/12 06:18:59;;;;;;;41.40;22.13;;;;;;;9.07;69.22;95536.56;5014032;28;20464;-85
2021/11/12 06:21:27;;;;;;;35.13;21.87;;;;;;;8.87;63.33;95531.84;5013933;28;20472;-83
2021/11/12 06:23:54;;;;;;;37.03;21.57;;;;;;;8.71;62.79;95528.63;5012995;28;20436;-83
2021/11/12 06:26:21;;;;;;;37.50;18.40;;;;;;;8.54;63.60;95522.72;5044168;28;20565;-82
2021/11/12 06:28:50;;;;;;;36.00;24.63;;;;;;;8.60;63.91;95531.94;5054688;28;20884;-83
2021/11/12 06:31:21;;;;;;;47.23;26.80;;;;;;;8.59;63.93;95528.47;5054837;28;20477;-82
2021/11/12 06:33:48;;;;;;;37.57;24.67;;;;;;;8.56;63.60;95531.28;5054880;28;20496;-83
2021/11/12 06:36:17;;;;;;;38.43;22.97;;;;;;;8.50;64.17;95530.88;5054659;28;20442;-83
2021/11/12 06:38:44;;;;;;;29.90;21.47;;;;;;;8.25;64.30;95544.69;5053619;28;20786;-83
2021/11/12 06:41:13;;;;;;;38.20;24.83;;;;;;;7.97;65.32;95537.78;5055235;28;20425;-82
2021/11/12 06:43:48;;;;;;;34.30;22.27;;;;;;;7.84;66.72;95535.13;5054720;28;20457;-82
2021/11/12 06:49:19;;;;;;;46.30;22.87;;;;;;;7.37;68.22;95540.72;5013020;28;21030;-83
2021/11/12 06:51:47;;;;;;;40.50;25.77;;;;;;;7.20;69.45;95536.50;5012339;28;20954;-82
2021/11/12 06:54:15;;;;;;;30.27;20.97;;;;;;;7.02;70.22;95535.88;5012349;28;20479;-83
2021/11/12 06:56:42;;;;;;;32.80;20.70;;;;;;;6.90;70.73;95526.16;5012768;28;20518;-83
2021/11/12 06:59:09;;;;;;;31.17;17.67;;;;;;;6.64;72.14;95525.13;5012206;28;20439;-82
2021/11/12 07:01:36;;;;;;;31.13;20.17;;;;;;;6.55;73.27;95523.06;5012286;28;20825;-83
2021/11/12 07:04:04;;;;;;;25.83;19.13;;;;;;;6.67;73.22;95524.97;5012266;28;20436;-83
2021/11/12 07:06:31;;;;;;;34.33;20.07;;;;;;;6.75;72.71;95524.50;5012192;28;20585;-83
2021/11/12 07:08:59;;;;;;;22.70;17.80;;;;;;;6.80;73.07;95525.88;5012032;28;20510;-82
2021/11/12 07:11:26;;;;;;;27.50;20.10;;;;;;;6.74;73.30;95528.88;5012228;28;20435;-82
2021/11/12 07:13:53;;;;;;;39.40;23.13;;;;;;;6.62;72.52;95524.38;5012231;28;20447;-83
2021/11/12 07:16:19;;;;;;;31.00;21.00;;;;;;;6.71;72.57;95515.19;4995906;28;20566;-82
2021/11/12 07:18:48;;;;;;;33.53;21.70;;;;;;;6.71;73.40;95513.41;5011778;28;20467;-82
2021/11/12 07:21:16;;;;;;;27.00;19.60;;;;;;;6.70;73.60;95516.94;5011945;28;21212;-82
2021/11/12 07:23:43;;;;;;;31.13;20.97;;;;;;;6.71;73.37;95509.97;5011701;28;20443;-82
2021/11/12 07:26:11;;;;;;;29.83;19.30;;;;;;;6.89;73.95;95500.19;5032033;28;20510;-82
2021/11/12 07:28:38;;;;;;;37.13;20.67;;;;;;;6.96;73.17;95506.72;5019038;28;20445;-82
2021/11/12 07:31:06;;;;;;;28.97;19.70;;;;;;;7.07;73.74;95512.94;5053497;28;20433;-82
2021/11/12 07:33:34;;;;;;;25.17;18.90;;;;;;;7.14;73.09;95505.59;5053650;28;20429;-82
2021/11/12 07:36:06;;;;;;;25.73;19.13;;;;;;;7.22;72.46;95494.66;5053971;28;20538;-82
2021/11/12 07:38:45;;;;;;;26.00;18.33;;;;;;;7.32;72.30;95501.00;5054021;28;20832;-81
2021/11/12 07:41:23;;;;;;;39.40;22.13;;;;;;;7.31;72.08;95497.56;5022644;28;20815;-82
2021/11/12 07:44:17;;;;;;;38.20;23.10;;;;;;;7.40;72.41;95496.97;5035072;28;20803;-81
2021/11/12 07:46:46;;;;;;;28.90;20.60;;;;;;;7.46;71.79;95498.34;5053276;28;20469;-81
2021/11/12 07:49:14;;;;;;;35.00;18.73;;;;;;;7.41;72.07;95501.25;5053884;28;20536;-82
2021/11/12 07:55:06;;;;;;;34.50;19.57;;;;;;;7.24;71.46;95492.81;5040821;28;20464;-83
2021/11/12 07:57:33;;;;;;;24.97;17.90;;;;;;;7.33;70.96;95490.47;5054011;28;20768;-82
2021/11/12 08:00:01;;;;;;;27.90;18.90;;;;;;;7.45;71.23;95497.53;5053510;28;20447;-83
2021/11/12 08:02:28;;;;;;;29.90;20.23;;;;;;;7.53;71.41;95491.00;5053142;28;20509;-82
2021/11/12 08:05:01;;;;;;;30.00;19.17;;;;;;;7.50;71.37;95485.94;5053534;28;20430;-83
2021/11/12 08:07:31;;;;;;;39.40;24.90;;;;;;;7.64;71.18;95491.16;5054546;28;20537;-82
2021/11/12 08:09:59;;;;;;;32.70;23.90;;;;;;;7.72;70.80;95491.50;5053730;28;20951;-81
2021/11/12 08:22:42;;;;;;;35.07;23.60;;;;;;;7.84;69.49;95482.88;5054067;28;20404;-81
2021/11/12 08:25:16;;;;;;;32.70;22.23;;;;;;;7.88;69.37;95481.75;5051372;28;20776;-82
2021/11/12 08:33:32;;;;;;;37.27;23.40;;;;;;;8.03;70.30;95469.44;5053697;28;20920;-82
2021/11/12 08:36:26;;;;;;;33.30;22.97;;;;;;;8.16;69.87;95477.34;5053038;28;20444;-82
2021/11/12 08:39:05;;;;;;;38.67;22.47;;;;;;;8.27;70.13;95477.44;5053374;28;20486;-81
2021/11/12 08:41:36;;;;;;;38.17;23.60;;;;;;;8.35;69.87;95465.56;5053319;28;20524;-83
2021/11/12 08:44:10;;;;;;;33.50;22.47;;;;;;;8.51;70.08;95470.63;5053615;28;20504;-82
2021/11/12 08:46:44;;;;;;;31.80;21.63;;;;;;;8.67;68.08;95470.41;5053348;28;20480;-82
2021/11/12 08:49:13;;;;;;;29.53;21.17;;;;;;;8.78;67.17;95467.06;5053189;28;20460;-83
2021/11/12 08:51:41;;;;;;;25.50;19.17;;;;;;;8.79;66.14;95466.13;5053184;28;20473;-83
2021/11/12 08:54:10;;;;;;;33.90;22.67;;;;;;;8.71;66.90;95460.59;5054271;28;20458;-82
2021/11/12 08:56:43;;;;;;;38.93;21.37;;;;;;;8.81;67.13;95453.78;5054043;28;20819;-82
2021/11/12 08:59:10;;;;;;;28.13;22.73;;;;;;;9.03;66.62;95463.59;5019966;28;20988;-82
2021/11/12 09:01:37;;;;;;;44.37;25.37;;;;;;;9.12;66.75;95453.31;5054682;28;20985;-84
2021/11/12 09:04:04;;;;;;;35.73;22.27;;;;;;;9.24;64.85;95460.28;5056656;28;20447;-83
2021/11/12 09:06:31;;;;;;;29.43;22.00;;;;;;;9.29;65.20;95458.22;5056792;28;20430;-82
2021/11/12 09:08:58;;;;;;;31.03;21.30;;;;;;;9.46;65.23;95457.00;5056477;28;20427;-82
2021/11/12 09:11:26;;;;;;;30.10;21.60;;;;;;;9.63;63.86;95447.94;5056606;28;21002;-82
2021/11/12 09:13:56;;;;;;;32.83;20.93;;;;;;;9.82;64.02;95437.78;5055419;28;20440;-83
2021/11/12 09:16:30;;;;;;;37.57;22.33;;;;;;;10.00;63.99;95442.63;5035266;28;20448;-83
2021/11/12 09:18:58;;;;;;;39.57;24.53;;;;;;;10.20;62.89;95436.75;5056390;28;20436;-82
2021/11/12 09:21:26;;;;;;;42.70;24.30;;;;;;;10.31;61.89;95428.94;5024812;28;20537;-82
2021/11/12 09:23:53;;;;;;;39.93;23.97;;;;;;;10.42;61.27;95429.00;5031416;28;20449;-82
2021/11/12 09:26:20;;;;;;;36.80;22.37;;;;;;;10.43;60.31;95422.78;5056300;28;20807;-83
2021/11/12 09:28:48;;;;;;;31.07;21.57;;;;;;;10.39;60.74;95423.94;5021484;28;20819;-82
2021/11/12 09:31:17;;;;;;;28.57;20.30;;;;;;;10.35;61.80;95409.41;5055943;28;20439;-82
2021/11/12 09:33:44;;;;;;;37.20;20.63;;;;;;;10.45;60.74;95413.00;5056643;28;20821;-83
2021/11/12 09:36:12;;;;;;;33.90;22.40;;;;;;;10.60;61.40;95412.78;5056514;28;20442;-83
2021/11/12 09:38:44;;;;;;;28.00;20.10;;;;;;;10.65;60.17;95414.09;5056967;28;20536;-82
2021/11/12 09:41:12;;;;;;;29.97;21.27;;;;;;;10.74;61.12;95413.41;5056558;28;20825;-82
2021/11/12 09:50:26;;;;;;;33.53;21.33;;;;;;;11.02;59.50;95391.09;5055977;28;20950;-82
2021/11/12 09:52:53;;;;;;;27.03;19.13;;;;;;;11.00;59.99;95385.13;5056195;28;20441;-81
2021/11/12 09:55:21;;;;;;;54.43;28.00;;;;;;;11.08;59.19;95384.53;5056033;28;20924;-82
2021/11/12 09:57:52;;;;;;;29.40;20.17;;;;;;;11.11;60.24;95389.53;5055842;28;20960;-81
2021/11/12 10:00:22;;;;;;;30.03;21.67;;;;;;;11.04;58.58;95381.31;5055931;28;20472;-80
2021/11/12 10:02:50;;;;;;;30.60;19.70;;;;;;;11.06;59.52;95381.19;5055784;28;20430;-82
2021/11/12 10:05:33;;;;;;;32.03;19.30;;;;;;;11.04;58.51;95370.81;5055714;28;20713;-83
2021/11/12 10:18:08;;;;;;;29.10;18.70;;;;;;;11.30;57.37;95362.66;5054346;28;20830;-82
2021/11/12 10:20:36;;;;;;;26.47;18.60;;;;;;;11.33;57.64;95362.41;5054978;28;20517;-82
2021/11/12 10:23:15;;;;;;;28.37;17.43;;;;;;;11.34;58.34;95343.88;5054671;28;20428;-82
2021/11/12 10:25:55;;;;;;;30.13;17.67;;;;;;;11.43;58.30;95344.94;5054825;28;20497;-82
2021/11/12 10:35:08;;;;;;;28.53;17.77;;;;;;;11.36;57.25;95328.00;5053956;28;20938;-82
2021/11/12 10:37:38;;;;;;;26.67;16.80;;;;;;;11.46;57.63;95327.13;5054978;28;20484;-82
2021/11/12 10:40:08;;;;;;;32.50;17.13;;;;;;;11.58;58.50;95322.66;5055240;28;20445;-82
2021/11/12 10:42:39;;;;;;;25.90;18.47;;;;;;;11.68;58.14;95312.22;5055270;28;20456;-82
2021/11/12 10:45:08;;;;;;;45.53;19.90;;;;;;;11.75;58.03;95305.50;5020658;28;20932;-82
2021/11/12 10:47:43;;;;;;;34.10;19.50;;;;;;;11.77;57.81;95307.03;5020504;28;20987;-81
2021/11/12 10:50:11;;;;;;;30.60;21.07;;;;;;;11.86;57.34;95308.13;5054751;28;20438;-81
2021/11/12 10:52:39;;;;;;;28.77;20.40;;;;;;;11.89;58.03;95307.03;5054859;28;20912;-81
2021/11/12 10:55:09;;;;;;;27.90;18.97;;;;;;;11.98;58.00;95306.25;5054929;28;20842;-82
2021/11/12 10:57:40;;;;;;;28.07;16.10;;;;;;;11.97;56.63;95307.22;5055151;28;20463;-81
2021/11/12 11:00:12;;;;;;;26.97;18.20;;;;;;;11.99;56.56;95302.66;5054826;28;20447;-81
2021/11/12 11:02:59;;;;;;;27.73;17.73;;;;;;;11.99;55.95;95295.59;5054157;28;20455;-81
2021/11/12 11:05:28;;;;;;;29.13;19.30;;;;;;;12.01;57.02;95290.19;5056035;28;20502;-81
2021/11/12 11:07:58;;;;;;;28.80;17.40;;;;;;;11.98;56.63;95293.94;5055354;28;20504;-81
2021/11/12 11:10:31;;;;;;;28.93;18.70;;;;;;;11.95;56.87;95291.56;5054237;28;20466;-81
2021/11/12 11:13:02;;;;;;;23.97;17.20;;;;;;;11.95;56.75;95286.31;5054794;28;20440;-81
2021/11/12 11:15:32;;;;;;;30.10;17.40;;;;;;;11.94;56.75;95281.16;5019677;28;20522;-81
2021/11/12 11:21:29;;;;;;;26.27;16.13;;;;;;;11.97;56.62;95281.75;5054576;28;20485;-82
2021/11/12 11:23:59;;;;;;;31.60;18.30;;;;;;;12.02;55.28;95278.72;5055668;28;20445;-82
2021/11/12 11:26:30;;;;;;;19.20;13.83;;;;;;;12.04;55.36;95277.63;5055503;28;20443;-82
2021/11/12 11:28:59;;;;;;;21.60;13.27;;;;;;;12.10;53.67;95273.63;5055061;28;20569;-81
2021/11/12 11:31:29;;;;;;;24.17;14.30;;;;;;;12.18;53.88;95271.22;5053842;28;20927;-82
2021/11/12 11:34:00;;;;;;;24.63;15.70;;;;;;;12.29;53.70;95268.50;5054719;28;20435;-82
2021/11/12 11:36:31;;;;;;;31.73;15.90;;;;;;;12.33;53.78;95269.88;5019548;28;20449;-82
2021/11/12 11:39:01;;;;;;;22.33;15.97;;;;;;;12.31;53.09;95270.97;5054303;28;20447;-82
2021/11/12 11:41:29;;;;;;;27.03;16.73;;;;;;;12.44;53.92;95262.88;5018922;28;20491;-82
2021/11/12 11:43:56;;;;;;;25.10;14.73;;;;;;;12.49;53.05;95264.16;5053827;28;20485;-82
2021/11/12 11:46:25;;;;;;;25.60;17.17;;;;;;;12.54;53.36;95258.47;5054100;28;20484;-81
2021/11/12 11:48:57;;;;;;;31.93;16.20;;;;;;;12.59;54.40;95269.44;5053420;28;20480;-82
2021/11/12 11:51:30;;;;;;;24.03;16.27;;;;;;;12.63;54.51;95260.31;5019116;28;20452;-81
2021/11/12 11:54:05;;;;;;;24.50;16.20;;;;;;;12.61;53.18;95263.06;5053654;28;20444;-82
2021/11/12 11:56:34;;;;;;;28.33;16.40;;;;;;;12.66;52.65;95265.31;5053234;28;20481;-82
2021/11/12 11:59:04;;;;;;;24.60;16.43;;;;;;;12.71;52.84;95268.38;5054178;28;20458;-81
2021/11/12 12:01:37;;;;;;;48.40;17.30;;;;;;;12.74;52.92;95267.28;5053524;28;20430;-80
2021/11/12 12:04:37;;;;;;;25.50;17.13;;;;;;;12.81;52.94;95261.34;5053669;28;20430;-82
2021/11/12 12:07:17;;;;;;;22.77;15.40;;;;;;;12.87;51.91;95258.16;5055477;28;20533;-88
2021/11/12 12:09:50;;;;;;;22.60;16.03;;;;;;;12.96;52.06;95257.34;5056192;28;20522;-82
2021/11/12 12:12:43;;;;;;;32.17;17.70;;;;;;;13.00;50.61;95248.19;5055252;28;21004;-81
2021/11/12 12:15:29;;;;;;;21.97;15.40;;;;;;;13.05;50.63;95241.72;5054937;28;20429;-83
2021/11/12 12:18:22;;;;;;;39.40;17.90;;;;;;;13.10;51.08;95240.34;5019235;28;20437;-81
2021/11/12 12:31:09;;;;;;;20.07;13.57;;;;;;;12.94;48.73;95229.47;5053416;28;20455;-81
2021/11/12 13:20:21;;;;;;;24.40;17.77;;;;;;;13.31;51.38;95213.91;4823993;29;21009;-80
2021/11/12 13:22:56;;;;;;;34.83;19.77;;;;;;;13.32;50.58;95212.94;4916054;28;20453;-81
2021/11/12 13:25:30;;;;;;;40.37;20.23;;;;;;;13.36;50.16;95211.66;4955312;28;20507;-82
2021/11/12 13:28:14;;;;;;;26.57;18.00;;;;;;;13.32;50.64;95205.84;4955191;28;20852;-81
2021/11/12 13:30:45;;;;;;;32.00;17.40;;;;;;;13.38;50.02;95207.09;4954545;28;20486;-82
2021/11/12 13:33:30;;;;;;;41.83;20.57;;;;;;;13.36;50.34;95209.03;4977440;28;20519;-83
2021/11/12 13:35:58;;;;;;;34.03;19.30;;;;;;;13.40;50.16;95204.31;5013685;28;20447;-81
2021/11/12 13:38:34;;;;;;;31.27;19.00;;;;;;;13.39;50.11;95205.28;5013241;28;20451;-81
2021/11/12 13:41:04;;;;;;;32.73;18.10;;;;;;;13.38;50.09;95204.47;5013543;28;20471;-82
2021/11/12 13:43:35;;;;;;;33.83;17.00;;;;;;;13.39;49.58;95206.13;5014650;28;20453;-83
2021/11/12 13:46:02;;;;;;;32.10;17.90;;;;;;;13.39;50.08;95202.66;4998156;28;20438;-81
2021/11/12 13:48:29;;;;;;;28.77;19.50;;;;;;;13.38;49.51;95201.81;5055257;28;20595;-82
2021/11/12 13:51:00;;;;;;;28.60;18.60;;;;;;;13.31;50.85;95206.81;5055630;28;20483;-82
2021/11/12 13:53:28;;;;;;;28.73;19.40;;;;;;;13.30;50.44;95191.16;5056085;28;20457;-82
2021/11/12 13:55:56;;;;;;;34.37;19.77;;;;;;;13.30;50.68;95193.78;5054802;28;20471;-82
2021/11/12 13:58:26;;;;;;;33.70;19.63;;;;;;;13.29;50.99;95200.84;5020260;28;20450;-80
2021/11/12 14:00:56;;;;;;;34.60;22.77;;;;;;;13.29;51.01;95200.84;5055304;28;20456;-82
2021/11/12 14:03:34;;;;;;;34.57;22.20;;;;;;;13.27;51.45;95197.50;5055216;28;20451;-81
2021/11/12 14:06:04;;;;;;;41.20;22.53;;;;;;;13.26;51.21;95202.91;5054319;28;20811;-80
2021/11/12 14:08:35;;;;;;;40.17;22.87;;;;;;;13.23;51.17;95195.28;5054115;28;20901;-82
2021/11/12 14:11:06;;;;;;;33.80;20.80;;;;;;;13.23;50.77;95198.75;5054472;28;20445;-82
2021/11/12 14:13:37;;;;;;;47.60;22.70;;;;;;;13.21;50.52;95202.50;5019535;28;20438;-80
2021/11/12 14:16:11;;;;;;;37.97;24.00;;;;;;;13.19;50.05;95199.19;5054593;28;20780;-82
2021/11/12 14:18:49;;;;;;;37.90;24.00;;;;;;;13.18;50.30;95202.78;5054133;28;20476;-82
2021/11/12 14:21:23;;;;;;;48.07;23.30;;;;;;;13.18;50.40;95197.50;5054669;28;20498;-81
2021/11/12 14:23:55;;;;;;;35.77;21.90;;;;;;;13.16;50.24;95200.25;5054177;28;20446;-81
2021/11/12 14:26:31;;;;;;;39.70;20.10;;;;;;;13.15;50.76;95206.50;5053940;28;20449;-82
2021/11/12 14:29:03;;;;;;;34.53;19.57;;;;;;;13.09;51.13;95204.41;5054702;28;20561;-81
2021/11/12 14:31:45;;;;;;;29.60;19.13;;;;;;;13.08;51.05;95207.19;5055169;28;20584;-82
2021/11/12 14:34:23;;;;;;;39.13;20.40;;;;;;;13.04;51.27;95206.63;5054203;28;20476;-82
2021/11/12 14:36:52;;;;;;;37.93;18.90;;;;;;;12.97;51.87;95208.97;5053856;28;20452;-82
2021/11/12 14:39:42;;;;;;;33.00;18.53;;;;;;;12.96;52.52;95209.94;5053856;28;20520;-83
2021/11/12 14:42:43;;;;;;;34.43;21.60;;;;;;;12.90;53.40;95209.66;5054644;28;21060;-81
2021/11/12 14:45:16;;;;;;;42.50;21.33;;;;;;;12.82;54.94;95212.97;5054931;28;20446;-81
2021/11/12 14:47:56;;;;;;;37.67;20.90;;;;;;;12.78;56.48;95222.13;5054244;28;20500;-81
2021/11/12 14:50:35;;;;;;;60.90;22.77;;;;;;;12.70;58.49;95221.94;5054225;28;20502;-80
2021/11/12 14:53:26;;;;;;;43.30;22.00;;;;;;;12.59;59.03;95222.06;5054390;28;20458;-82
2021/11/12 14:56:01;;;;;;;37.07;18.07;;;;;;;12.48;60.76;95224.81;5053716;28;20568;-81
2021/11/12 14:58:29;;;;;;;52.80;27.80;;;;;;;12.38;61.69;95228.22;5035612;28;20435;-81
2021/11/12 15:01:03;;;;;;;87.53;42.23;;;;;;;12.29;62.20;95228.19;5053020;28;20452;-81
2021/11/12 15:03:31;;;;;;;88.23;43.33;;;;;;;12.19;62.89;95230.78;5053625;28;20453;-81
2021/11/12 15:05:59;;;;;;;73.37;36.40;;;;;;;12.08;63.09;95229.06;5053460;28;20446;-81
2021/11/12 15:08:27;;;;;;;66.10;32.93;;;;;;;11.99;63.90;95219.31;5053747;28;20490;-82
2021/11/12 15:10:55;;;;;;;73.37;31.40;;;;;;;11.88;64.28;95226.47;5053183;28;20937;-81
2021/11/12 15:13:23;;;;;;;57.80;33.03;;;;;;;11.77;64.11;95230.78;5053036;28;20442;-81
2021/11/12 15:15:52;;;;;;;58.17;28.40;;;;;;;11.70;64.78;95234.91;5053370;28;20455;-81
2021/11/12 15:18:19;;;;;;;52.37;28.30;;;;;;;11.60;65.26;95234.00;5053101;28;20796;-81
2021/11/12 15:20:47;;;;;;;57.33;31.60;;;;;;;11.53;64.80;95232.81;5053518;28;20477;-82
2021/11/12 15:29:06;;;;;;;49.70;26.50;;;;;;;11.26;66.46;95241.19;4972305;28;20486;-81
2021/11/12 15:31:37;;;;;;;45.30;24.73;;;;;;;11.18;67.19;95244.44;4972581;28;20452;-81
2021/11/12 15:34:06;;;;;;;43.43;24.60;;;;;;;11.11;67.38;95245.91;4972906;28;20453;-81
2021/11/12 15:36:43;;;;;;;37.43;24.00;;;;;;;11.05;68.05;95251.66;4973243;28;20471;-81
2021/11/12 15:39:12;;;;;;;40.33;25.33;;;;;;;10.99;67.80;95256.59;4973094;28;20436;-81
2021/11/12 15:42:07;;;;;;;41.30;24.70;;;;;;;10.94;67.80;95258.72;4972550;28;20454;-81
2021/11/12 15:44:35;;;;;;;47.17;27.90;;;;;;;10.84;67.36;95251.59;4972588;28;20825;-81
2021/11/12 15:47:07;;;;;;;39.77;24.37;;;;;;;10.78;68.16;95256.50;4971982;28;20491;-81
2021/11/12 15:49:36;;;;;;;48.58;24.95;;;;;;;10.73;68.26;95261.28;4974038;28;20445;-85
2021/11/12 15:52:08;;;;;;;44.00;22.33;;;;;;;10.70;67.56;95269.41;4975548;28;20205;-83
2021/11/12 15:54:47;;;;;;;38.07;20.63;;;;;;;10.64;68.08;95260.22;4927431;28;20547;-80
2021/11/12 16:08:27;;;;;;;53.57;31.67;;;;;;;10.33;68.14;95264.41;4934714;29;20948;-81